sensor_id;sensor_type;location;lat;lon;timestamp;P1;durP1;ratioP1;P2;durP2;ratioP2
9838;SDS011;4958;48.150;11.506;2023-12-22T00:00:26;0.80;;;0.70;;
9838;SDS011;4958;48.150;11.506;2023-12-22T00:02:53;1.37;;;0.80;;
9838;SDS011;4958;48.150;11.506;2023-12-22T00:05:31;4.47;;;0.80;;
9838;SDS011;4958;48.150;11.506;2023-12-22T00:07:58;1.87;;;0.90;;
9838;SDS011;4958;48.150;11.506;2023-12-22T00:10:24;3.00;;;0.77;;
9838;SDS011;4958;48.150;11.506;2023-12-22T00:12:51;1.20;;;0.80;;
9838;SDS011;4958;48.150;11.506;2023-12-22T00:15:19;2.13;;;0.80;;
9838;SDS011;4958;48.150;11.506;2023-12-22T00:17:58;1.07;;;0.83;;
9838;SDS011;4958;48.150;11.506;2023-12-22T00:20:26;1.10;;;0.70;;
9838;SDS011;4958;48.150;11.506;2023-12-22T00:22:52;1.30;;;0.50;;
9838;SDS011;4958;48.150;11.506;2023-12-22T00:25:30;0.50;;;0.50;;
9838;SDS011;4958;48.150;11.506;2023-12-22T00:27:57;0.77;;;0.40;;
9838;SDS011;4958;48.150;11.506;2023-12-22T00:30:23;0.77;;;0.40;;
9838;SDS011;4958;48.150;11.506;2023-12-22T00:32:50;1.13;;;0.50;;
9838;SDS011;4958;48.150;11.506;2023-12-22T00:35:16;0.37;;;0.37;;
9838;SDS011;4958;48.150;11.506;2023-12-22T00:37:44;0.50;;;0.50;;
9838;SDS011;4958;48.150;11.506;2023-12-22T00:40:19;0.67;;;0.33;;
9838;SDS011;4958;48.150;11.506;2023-12-22T00:42:45;0.30;;;0.30;;
9838;SDS011;4958;48.150;11.506;2023-12-22T00:45:11;0.30;;;0.30;;
9838;SDS011;4958;48.150;11.506;2023-12-22T00:47:38;2.07;;;0.50;;
9838;SDS011;4958;48.150;11.506;2023-12-22T00:50:05;0.70;;;0.50;;
9838;SDS011;4958;48.150;11.506;2023-12-22T00:52:38;0.53;;;0.50;;
9838;SDS011;4958;48.150;11.506;2023-12-22T00:55:09;0.40;;;0.40;;
9838;SDS011;4958;48.150;11.506;2023-12-22T00:57:36;0.70;;;0.40;;
9838;SDS011;4958;48.150;11.506;2023-12-22T01:00:02;0.57;;;0.57;;
9838;SDS011;4958;48.150;11.506;2023-12-22T01:02:30;0.40;;;0.40;;
9838;SDS011;4958;48.150;11.506;2023-12-22T01:05:04;0.40;;;0.40;;
9838;SDS011;4958;48.150;11.506;2023-12-22T01:07:31;0.53;;;0.47;;
9838;SDS011;4958;48.150;11.506;2023-12-22T01:09:57;0.60;;;0.40;;
9838;SDS011;4958;48.150;11.506;2023-12-22T01:12:27;0.50;;;0.40;;
9838;SDS011;4958;48.150;11.506;2023-12-22T01:14:54;0.50;;;0.50;;
9838;SDS011;4958;48.150;11.506;2023-12-22T01:17:34;0.50;;;0.50;;
9838;SDS011;4958;48.150;11.506;2023-12-22T01:20:02;1.00;;;0.70;;
9838;SDS011;4958;48.150;11.506;2023-12-22T01:22:29;2.17;;;0.43;;
9838;SDS011;4958;48.150;11.506;2023-12-22T01:24:57;1.33;;;0.70;;
9838;SDS011;4958;48.150;11.506;2023-12-22T01:27:23;0.40;;;0.40;;
9838;SDS011;4958;48.150;11.506;2023-12-22T01:30:00;0.40;;;0.40;;
9838;SDS011;4958;48.150;11.506;2023-12-22T01:32:27;0.60;;;0.60;;
9838;SDS011;4958;48.150;11.506;2023-12-22T01:35:01;1.40;;;0.93;;
9838;SDS011;4958;48.150;11.506;2023-12-22T01:37:38;0.43;;;0.43;;
9838;SDS011;4958;48.150;11.506;2023-12-22T01:40:05;0.87;;;0.63;;
9838;SDS011;4958;48.150;11.506;2023-12-22T01:42:32;0.50;;;0.50;;
9838;SDS011;4958;48.150;11.506;2023-12-22T01:45:02;0.97;;;0.50;;
9838;SDS011;4958;48.150;11.506;2023-12-22T01:47:35;0.50;;;0.50;;
9838;SDS011;4958;48.150;11.506;2023-12-22T01:50:03;0.43;;;0.43;;
9838;SDS011;4958;48.150;11.506;2023-12-22T01:52:30;0.53;;;0.50;;
9838;SDS011;4958;48.150;11.506;2023-12-22T01:54:56;0.83;;;0.60;;
9838;SDS011;4958;48.150;11.506;2023-12-22T01:57:23;0.47;;;0.47;;
9838;SDS011;4958;48.150;11.506;2023-12-22T01:59:49;0.63;;;0.50;;
9838;SDS011;4958;48.150;11.506;2023-12-22T02:02:27;0.40;;;0.40;;
9838;SDS011;4958;48.150;11.506;2023-12-22T02:04:54;0.50;;;0.50;;
9838;SDS011;4958;48.150;11.506;2023-12-22T02:07:20;1.33;;;0.60;;
9838;SDS011;4958;48.150;11.506;2023-12-22T02:09:47;0.40;;;0.40;;
9838;SDS011;4958;48.150;11.506;2023-12-22T02:12:13;0.93;;;0.53;;
9838;SDS011;4958;48.150;11.506;2023-12-22T02:14:48;0.40;;;0.40;;
9838;SDS011;4958;48.150;11.506;2023-12-22T02:17:16;0.40;;;0.40;;
9838;SDS011;4958;48.150;11.506;2023-12-22T02:19:51;0.50;;;0.50;;
9838;SDS011;4958;48.150;11.506;2023-12-22T02:22:26;0.50;;;0.50;;
9838;SDS011;4958;48.150;11.506;2023-12-22T02:24:55;0.40;;;0.40;;
9838;SDS011;4958;48.150;11.506;2023-12-22T02:27:23;0.40;;;0.40;;
9838;SDS011;4958;48.150;11.506;2023-12-22T02:29:57;0.50;;;0.50;;
9838;SDS011;4958;48.150;11.506;2023-12-22T02:32:34;0.50;;;0.50;;
9838;SDS011;4958;48.150;11.506;2023-12-22T02:35:03;0.40;;;0.40;;
9838;SDS011;4958;48.150;11.506;2023-12-22T02:37:36;0.40;;;0.40;;
9838;SDS011;4958;48.150;11.506;2023-12-22T02:40:11;0.40;;;0.40;;
9838;SDS011;4958;48.150;11.506;2023-12-22T02:42:38;0.30;;;0.30;;
9838;SDS011;4958;48.150;11.506;2023-12-22T02:45:06;1.37;;;0.50;;
9838;SDS011;4958;48.150;11.506;2023-12-22T02:47:38;0.40;;;0.40;;
9838;SDS011;4958;48.150;11.506;2023-12-22T02:50:19;0.40;;;0.40;;
9838;SDS011;4958;48.150;11.506;2023-12-22T02:52:46;0.40;;;0.40;;
9838;SDS011;4958;48.150;11.506;2023-12-22T02:55:13;0.43;;;0.43;;
9838;SDS011;4958;48.150;11.506;2023-12-22T02:57:39;0.37;;;0.37;;
9838;SDS011;4958;48.150;11.506;2023-12-22T03:00:13;0.30;;;0.30;;
9838;SDS011;4958;48.150;11.506;2023-12-22T03:02:40;0.33;;;0.30;;
9838;SDS011;4958;48.150;11.506;2023-12-22T03:05:06;0.80;;;0.67;;
9838;SDS011;4958;48.150;11.506;2023-12-22T03:07:33;0.50;;;0.50;;
9838;SDS011;4958;48.150;11.506;2023-12-22T03:10:01;1.07;;;0.50;;
9838;SDS011;4958;48.150;11.506;2023-12-22T03:12:28;0.67;;;0.40;;
9838;SDS011;4958;48.150;11.506;2023-12-22T03:15:05;0.40;;;0.40;;
9838;SDS011;4958;48.150;11.506;2023-12-22T03:17:33;0.40;;;0.40;;
9838;SDS011;4958;48.150;11.506;2023-12-22T03:20:00;0.60;;;0.40;;
9838;SDS011;4958;48.150;11.506;2023-12-22T03:22:26;0.40;;;0.40;;
9838;SDS011;4958;48.150;11.506;2023-12-22T03:24:58;0.40;;;0.40;;
9838;SDS011;4958;48.150;11.506;2023-12-22T03:27:26;0.40;;;0.40;;
9838;SDS011;4958;48.150;11.506;2023-12-22T03:29:52;0.40;;;0.40;;
9838;SDS011;4958;48.150;11.506;2023-12-22T03:32:19;0.40;;;0.40;;
9838;SDS011;4958;48.150;11.506;2023-12-22T03:34:46;0.40;;;0.40;;
9838;SDS011;4958;48.150;11.506;2023-12-22T03:37:12;0.60;;;0.40;;
9838;SDS011;4958;48.150;11.506;2023-12-22T03:39:46;0.40;;;0.40;;
9838;SDS011;4958;48.150;11.506;2023-12-22T03:42:15;0.40;;;0.40;;
9838;SDS011;4958;48.150;11.506;2023-12-22T03:44:43;0.50;;;0.50;;
9838;SDS011;4958;48.150;11.506;2023-12-22T03:47:09;0.40;;;0.40;;
9838;SDS011;4958;48.150;11.506;2023-12-22T03:49:35;0.40;;;0.40;;
9838;SDS011;4958;48.150;11.506;2023-12-22T03:52:10;0.40;;;0.40;;
9838;SDS011;4958;48.150;11.506;2023-12-22T03:54:36;0.40;;;0.40;;
9838;SDS011;4958;48.150;11.506;2023-12-22T03:57:03;0.40;;;0.40;;
9838;SDS011;4958;48.150;11.506;2023-12-22T03:59:30;0.40;;;0.40;;
9838;SDS011;4958;48.150;11.506;2023-12-22T04:01:58;0.60;;;0.60;;
9838;SDS011;4958;48.150;11.506;2023-12-22T04:04:26;0.50;;;0.50;;
9838;SDS011;4958;48.150;11.506;2023-12-22T04:06:56;1.97;;;0.93;;
9838;SDS011;4958;48.150;11.506;2023-12-22T04:09:23;1.37;;;0.63;;
9838;SDS011;4958;48.150;11.506;2023-12-22T04:11:49;1.83;;;0.80;;
9838;SDS011;4958;48.150;11.506;2023-12-22T04:14:16;0.53;;;0.50;;
9838;SDS011;4958;48.150;11.506;2023-12-22T04:16:43;0.70;;;0.70;;
9838;SDS011;4958;48.150;11.506;2023-12-22T04:19:12;1.00;;;0.60;;
9838;SDS011;4958;48.150;11.506;2023-12-22T04:21:44;1.47;;;0.83;;
9838;SDS011;4958;48.150;11.506;2023-12-22T04:24:11;1.87;;;0.70;;
9838;SDS011;4958;48.150;11.506;2023-12-22T04:26:37;4.33;;;0.70;;
9838;SDS011;4958;48.150;11.506;2023-12-22T04:29:04;0.90;;;0.70;;
9838;SDS011;4958;48.150;11.506;2023-12-22T04:31:30;1.57;;;0.80;;
9838;SDS011;4958;48.150;11.506;2023-12-22T04:34:06;1.13;;;0.53;;
9838;SDS011;4958;48.150;11.506;2023-12-22T04:36:34;0.67;;;0.60;;
9838;SDS011;4958;48.150;11.506;2023-12-22T04:39:01;1.33;;;0.70;;
9838;SDS011;4958;48.150;11.506;2023-12-22T04:41:28;0.50;;;0.40;;
9838;SDS011;4958;48.150;11.506;2023-12-22T04:43:54;1.33;;;0.70;;
9838;SDS011;4958;48.150;11.506;2023-12-22T04:46:21;1.03;;;0.60;;
9838;SDS011;4958;48.150;11.506;2023-12-22T04:48:52;2.00;;;1.10;;
9838;SDS011;4958;48.150;11.506;2023-12-22T04:51:18;1.37;;;0.87;;
9838;SDS011;4958;48.150;11.506;2023-12-22T04:53:46;1.47;;;1.03;;
9838;SDS011;4958;48.150;11.506;2023-12-22T04:56:12;0.77;;;0.77;;
9838;SDS011;4958;48.150;11.506;2023-12-22T04:58:41;2.37;;;1.10;;
9838;SDS011;4958;48.150;11.506;2023-12-22T05:01:11;1.53;;;0.83;;
9838;SDS011;4958;48.150;11.506;2023-12-22T05:03:40;1.50;;;0.90;;
9838;SDS011;4958;48.150;11.506;2023-12-22T05:06:07;2.20;;;1.00;;
9838;SDS011;4958;48.150;11.506;2023-12-22T05:08:33;1.13;;;0.90;;
9838;SDS011;4958;48.150;11.506;2023-12-22T05:11:01;1.27;;;0.90;;
9838;SDS011;4958;48.150;11.506;2023-12-22T05:13:28;2.73;;;0.90;;
9838;SDS011;4958;48.150;11.506;2023-12-22T05:16:01;2.03;;;0.80;;
9838;SDS011;4958;48.150;11.506;2023-12-22T05:18:29;0.70;;;0.70;;
9838;SDS011;4958;48.150;11.506;2023-12-22T05:20:56;1.97;;;0.80;;
9838;SDS011;4958;48.150;11.506;2023-12-22T05:23:25;1.07;;;0.63;;
9838;SDS011;4958;48.150;11.506;2023-12-22T05:26:15;1.60;;;0.70;;
9838;SDS011;4958;48.150;11.506;2023-12-22T05:28:43;2.30;;;0.90;;
9838;SDS011;4958;48.150;11.506;2023-12-22T05:31:10;1.50;;;0.70;;
9838;SDS011;4958;48.150;11.506;2023-12-22T05:33:46;1.23;;;0.80;;
9838;SDS011;4958;48.150;11.506;2023-12-22T05:36:12;1.77;;;0.70;;
9838;SDS011;4958;48.150;11.506;2023-12-22T05:38:39;1.53;;;0.90;;
9838;SDS011;4958;48.150;11.506;2023-12-22T05:41:06;1.50;;;0.80;;
9838;SDS011;4958;48.150;11.506;2023-12-22T05:43:33;2.83;;;0.83;;
9838;SDS011;4958;48.150;11.506;2023-12-22T05:46:16;1.47;;;0.80;;
9838;SDS011;4958;48.150;11.506;2023-12-22T05:48:43;1.30;;;0.60;;
9838;SDS011;4958;48.150;11.506;2023-12-22T05:51:09;1.23;;;0.63;;
9838;SDS011;4958;48.150;11.506;2023-12-22T05:53:48;2.83;;;0.97;;
9838;SDS011;4958;48.150;11.506;2023-12-22T05:56:18;1.27;;;0.97;;
9838;SDS011;4958;48.150;11.506;2023-12-22T05:58:47;1.03;;;0.50;;
9838;SDS011;4958;48.150;11.506;2023-12-22T06:01:28;1.73;;;0.70;;
9838;SDS011;4958;48.150;11.506;2023-12-22T06:03:55;2.67;;;0.77;;
9838;SDS011;4958;48.150;11.506;2023-12-22T06:06:22;1.13;;;0.90;;
9838;SDS011;4958;48.150;11.506;2023-12-22T06:08:49;1.10;;;0.93;;
9838;SDS011;4958;48.150;11.506;2023-12-22T06:11:16;1.77;;;0.70;;
9838;SDS011;4958;48.150;11.506;2023-12-22T06:13:52;0.70;;;0.60;;
9838;SDS011;4958;48.150;11.506;2023-12-22T06:16:19;0.87;;;0.67;;
9838;SDS011;4958;48.150;11.506;2023-12-22T06:18:46;1.47;;;0.70;;
9838;SDS011;4958;48.150;11.506;2023-12-22T06:21:12;1.57;;;0.80;;
9838;SDS011;4958;48.150;11.506;2023-12-22T06:23:40;0.90;;;0.70;;
9838;SDS011;4958;48.150;11.506;2023-12-22T06:26:30;0.77;;;0.70;;
9838;SDS011;4958;48.150;11.506;2023-12-22T06:28:58;0.80;;;0.70;;
9838;SDS011;4958;48.150;11.506;2023-12-22T06:31:41;1.60;;;0.90;;
9838;SDS011;4958;48.150;11.506;2023-12-22T06:34:10;1.40;;;0.80;;
9838;SDS011;4958;48.150;11.506;2023-12-22T06:39:24;2.40;;;0.70;;
9838;SDS011;4958;48.150;11.506;2023-12-22T06:41:53;2.47;;;1.20;;
9838;SDS011;4958;48.150;11.506;2023-12-22T06:47:12;3.83;;;0.90;;
9838;SDS011;4958;48.150;11.506;2023-12-22T06:49:38;1.13;;;1.03;;
9838;SDS011;4958;48.150;11.506;2023-12-22T06:52:17;2.20;;;1.00;;
9838;SDS011;4958;48.150;11.506;2023-12-22T06:54:43;2.17;;;1.10;;
9838;SDS011;4958;48.150;11.506;2023-12-22T06:57:13;2.77;;;0.90;;
9838;SDS011;4958;48.150;11.506;2023-12-22T06:59:40;1.67;;;0.83;;
9838;SDS011;4958;48.150;11.506;2023-12-22T07:02:20;2.40;;;1.13;;
9838;SDS011;4958;48.150;11.506;2023-12-22T07:05:02;2.70;;;1.17;;
9838;SDS011;4958;48.150;11.506;2023-12-22T07:07:50;2.00;;;0.80;;
9838;SDS011;4958;48.150;11.506;2023-12-22T07:10:16;1.80;;;1.20;;
9838;SDS011;4958;48.150;11.506;2023-12-22T07:13:04;2.47;;;0.93;;
9838;SDS011;4958;48.150;11.506;2023-12-22T07:15:31;2.13;;;1.00;;
9838;SDS011;4958;48.150;11.506;2023-12-22T07:17:59;2.83;;;1.13;;
9838;SDS011;4958;48.150;11.506;2023-12-22T07:20:35;1.67;;;1.23;;
9838;SDS011;4958;48.150;11.506;2023-12-22T07:23:01;1.53;;;0.83;;
9838;SDS011;4958;48.150;11.506;2023-12-22T07:25:28;4.53;;;1.20;;
9838;SDS011;4958;48.150;11.506;2023-12-22T07:27:54;3.97;;;1.40;;
9838;SDS011;4958;48.150;11.506;2023-12-22T07:30:24;1.20;;;0.93;;
9838;SDS011;4958;48.150;11.506;2023-12-22T07:33:07;4.13;;;1.30;;
9838;SDS011;4958;48.150;11.506;2023-12-22T07:35:33;1.67;;;1.00;;
9838;SDS011;4958;48.150;11.506;2023-12-22T07:38:00;2.83;;;1.20;;
9838;SDS011;4958;48.150;11.506;2023-12-22T07:40:27;2.30;;;1.10;;
9838;SDS011;4958;48.150;11.506;2023-12-22T07:43:08;1.40;;;1.10;;
9838;SDS011;4958;48.150;11.506;2023-12-22T07:45:34;4.07;;;1.03;;
9838;SDS011;4958;48.150;11.506;2023-12-22T07:48:03;3.50;;;1.20;;
9838;SDS011;4958;48.150;11.506;2023-12-22T07:50:33;2.50;;;1.20;;
9838;SDS011;4958;48.150;11.506;2023-12-22T07:53:10;3.83;;;1.23;;
9838;SDS011;4958;48.150;11.506;2023-12-22T07:55:36;3.53;;;1.30;;
9838;SDS011;4958;48.150;11.506;2023-12-22T07:58:04;1.53;;;1.20;;
9838;SDS011;4958;48.150;11.506;2023-12-22T08:03:21;4.67;;;1.57;;
9838;SDS011;4958;48.150;11.506;2023-12-22T08:06:06;1.70;;;1.13;;
9838;SDS011;4958;48.150;11.506;2023-12-22T08:09:28;2.60;;;1.00;;
9838;SDS011;4958;48.150;11.506;2023-12-22T08:12:01;3.50;;;1.13;;
9838;SDS011;4958;48.150;11.506;2023-12-22T08:14:31;4.33;;;1.47;;
9838;SDS011;4958;48.150;11.506;2023-12-22T08:17:00;3.57;;;1.30;;
9838;SDS011;4958;48.150;11.506;2023-12-22T08:19:44;1.70;;;1.00;;
9838;SDS011;4958;48.150;11.506;2023-12-22T08:22:37;1.83;;;0.90;;
9838;SDS011;4958;48.150;11.506;2023-12-22T08:28:12;1.23;;;1.00;;
9838;SDS011;4958;48.150;11.506;2023-12-22T08:30:38;3.47;;;1.20;;
9838;SDS011;4958;48.150;11.506;2023-12-22T08:33:14;3.40;;;1.20;;
9838;SDS011;4958;48.150;11.506;2023-12-22T08:35:42;2.50;;;1.23;;
9838;SDS011;4958;48.150;11.506;2023-12-22T08:38:20;2.30;;;1.27;;
9838;SDS011;4958;48.150;11.506;2023-12-22T08:41:05;4.63;;;1.17;;
9838;SDS011;4958;48.150;11.506;2023-12-22T08:43:32;5.23;;;1.20;;
9838;SDS011;4958;48.150;11.506;2023-12-22T08:45:59;2.57;;;1.07;;
9838;SDS011;4958;48.150;11.506;2023-12-22T08:48:35;1.90;;;1.23;;
9838;SDS011;4958;48.150;11.506;2023-12-22T08:51:04;1.50;;;0.90;;
9838;SDS011;4958;48.150;11.506;2023-12-22T08:53:35;2.03;;;0.93;;
9838;SDS011;4958;48.150;11.506;2023-12-22T08:56:24;1.47;;;0.90;;
9838;SDS011;4958;48.150;11.506;2023-12-22T08:59:01;2.40;;;1.00;;
9838;SDS011;4958;48.150;11.506;2023-12-22T09:01:36;3.13;;;0.90;;
9838;SDS011;4958;48.150;11.506;2023-12-22T09:04:03;2.67;;;1.30;;
9838;SDS011;4958;48.150;11.506;2023-12-22T09:06:29;2.07;;;1.20;;
9838;SDS011;4958;48.150;11.506;2023-12-22T09:08:57;2.13;;;1.20;;
9838;SDS011;4958;48.150;11.506;2023-12-22T09:11:26;3.20;;;1.37;;
9838;SDS011;4958;48.150;11.506;2023-12-22T09:14:01;2.00;;;1.00;;
9838;SDS011;4958;48.150;11.506;2023-12-22T09:16:27;2.10;;;1.10;;
9838;SDS011;4958;48.150;11.506;2023-12-22T09:18:54;3.33;;;1.50;;
9838;SDS011;4958;48.150;11.506;2023-12-22T09:21:20;2.67;;;1.10;;
9838;SDS011;4958;48.150;11.506;2023-12-22T09:23:47;2.77;;;1.17;;
9838;SDS011;4958;48.150;11.506;2023-12-22T09:26:22;3.50;;;1.20;;
9838;SDS011;4958;48.150;11.506;2023-12-22T09:32:23;4.63;;;1.67;;
9838;SDS011;4958;48.150;11.506;2023-12-22T09:34:49;3.40;;;1.20;;
9838;SDS011;4958;48.150;11.506;2023-12-22T09:37:16;2.40;;;1.10;;
9838;SDS011;4958;48.150;11.506;2023-12-22T09:39:42;4.40;;;1.80;;
9838;SDS011;4958;48.150;11.506;2023-12-22T09:42:19;2.27;;;1.20;;
9838;SDS011;4958;48.150;11.506;2023-12-22T09:44:47;1.57;;;1.03;;
9838;SDS011;4958;48.150;11.506;2023-12-22T09:47:15;2.27;;;0.90;;
9838;SDS011;4958;48.150;11.506;2023-12-22T09:49:46;1.40;;;1.00;;
9838;SDS011;4958;48.150;11.506;2023-12-22T09:52:23;1.20;;;0.80;;
9838;SDS011;4958;48.150;11.506;2023-12-22T09:54:56;3.17;;;1.00;;
9838;SDS011;4958;48.150;11.506;2023-12-22T09:58:05;2.13;;;0.80;;
9838;SDS011;4958;48.150;11.506;2023-12-22T10:00:39;2.33;;;1.00;;
9838;SDS011;4958;48.150;11.506;2023-12-22T10:03:09;1.97;;;0.60;;
9838;SDS011;4958;48.150;11.506;2023-12-22T10:05:36;1.13;;;0.80;;
9838;SDS011;4958;48.150;11.506;2023-12-22T10:10:46;0.77;;;0.70;;
9838;SDS011;4958;48.150;11.506;2023-12-22T10:13:23;0.60;;;0.60;;
9838;SDS011;4958;48.150;11.506;2023-12-22T10:16:02;0.60;;;0.60;;
9838;SDS011;4958;48.150;11.506;2023-12-22T10:21:28;0.77;;;0.73;;
9838;SDS011;4958;48.150;11.506;2023-12-22T10:24:04;0.80;;;0.77;;
9838;SDS011;4958;48.150;11.506;2023-12-22T10:27:09;0.73;;;0.50;;
9838;SDS011;4958;48.150;11.506;2023-12-22T10:29:40;1.13;;;0.80;;
9838;SDS011;4958;48.150;11.506;2023-12-22T10:32:14;0.60;;;0.60;;
9838;SDS011;4958;48.150;11.506;2023-12-22T10:34:55;0.57;;;0.57;;
9838;SDS011;4958;48.150;11.506;2023-12-22T10:37:27;1.20;;;0.60;;
9838;SDS011;4958;48.150;11.506;2023-12-22T10:39:56;1.27;;;0.90;;
9838;SDS011;4958;48.150;11.506;2023-12-22T10:42:32;2.10;;;0.60;;
9838;SDS011;4958;48.150;11.506;2023-12-22T10:45:01;0.93;;;0.70;;
9838;SDS011;4958;48.150;11.506;2023-12-22T10:47:39;0.83;;;0.70;;
9838;SDS011;4958;48.150;11.506;2023-12-22T10:50:37;1.53;;;0.87;;
9838;SDS011;4958;48.150;11.506;2023-12-22T10:53:12;2.03;;;0.90;;
9838;SDS011;4958;48.150;11.506;2023-12-22T10:55:40;2.33;;;0.97;;
9838;SDS011;4958;48.150;11.506;2023-12-22T10:58:12;1.60;;;1.00;;
9838;SDS011;4958;48.150;11.506;2023-12-22T11:00:46;2.30;;;1.33;;
9838;SDS011;4958;48.150;11.506;2023-12-22T11:03:17;3.03;;;1.10;;
9838;SDS011;4958;48.150;11.506;2023-12-22T11:05:44;3.53;;;1.10;;
9838;SDS011;4958;48.150;11.506;2023-12-22T11:08:12;3.47;;;1.10;;
9838;SDS011;4958;48.150;11.506;2023-12-22T11:10:55;1.73;;;1.20;;
9838;SDS011;4958;48.150;11.506;2023-12-22T11:13:24;1.80;;;1.00;;
9838;SDS011;4958;48.150;11.506;2023-12-22T11:15:55;1.37;;;0.80;;
9838;SDS011;4958;48.150;11.506;2023-12-22T11:18:22;1.70;;;1.07;;
9838;SDS011;4958;48.150;11.506;2023-12-22T11:20:58;2.67;;;0.90;;
9838;SDS011;4958;48.150;11.506;2023-12-22T11:23:28;3.17;;;1.10;;
9838;SDS011;4958;48.150;11.506;2023-12-22T11:25:57;2.73;;;0.80;;
9838;SDS011;4958;48.150;11.506;2023-12-22T11:28:33;2.90;;;1.13;;
9838;SDS011;4958;48.150;11.506;2023-12-22T11:31:02;1.80;;;0.97;;
9838;SDS011;4958;48.150;11.506;2023-12-22T11:33:29;1.13;;;0.97;;
9838;SDS011;4958;48.150;11.506;2023-12-22T11:35:57;1.53;;;1.07;;
9838;SDS011;4958;48.150;11.506;2023-12-22T11:38:25;3.03;;;1.00;;
9838;SDS011;4958;48.150;11.506;2023-12-22T11:41:24;2.23;;;1.40;;
9838;SDS011;4958;48.150;11.506;2023-12-22T11:44:03;1.03;;;0.83;;
9838;SDS011;4958;48.150;11.506;2023-12-22T11:46:32;3.40;;;1.20;;
9838;SDS011;4958;48.150;11.506;2023-12-22T11:48:59;2.60;;;0.90;;
9838;SDS011;4958;48.150;11.506;2023-12-22T11:51:38;3.40;;;1.10;;
9838;SDS011;4958;48.150;11.506;2023-12-22T11:54:15;0.73;;;0.70;;
9838;SDS011;4958;48.150;11.506;2023-12-22T11:57:30;1.47;;;0.97;;
9838;SDS011;4958;48.150;11.506;2023-12-22T11:59:58;1.73;;;0.90;;
9838;SDS011;4958;48.150;11.506;2023-12-22T12:02:37;2.20;;;0.90;;
9838;SDS011;4958;48.150;11.506;2023-12-22T12:05:17;3.43;;;1.17;;
9838;SDS011;4958;48.150;11.506;2023-12-22T12:07:44;1.03;;;0.90;;
9838;SDS011;4958;48.150;11.506;2023-12-22T12:10:11;1.47;;;1.00;;
9838;SDS011;4958;48.150;11.506;2023-12-22T12:13:23;1.23;;;1.00;;
9838;SDS011;4958;48.150;11.506;2023-12-22T12:16:26;1.60;;;0.80;;
9838;SDS011;4958;48.150;11.506;2023-12-22T12:18:50;3.20;;;1.03;;
9838;SDS011;4958;48.150;11.506;2023-12-22T12:21:18;3.17;;;1.00;;
9838;SDS011;4958;48.150;11.506;2023-12-22T12:23:45;2.87;;;1.20;;
9838;SDS011;4958;48.150;11.506;2023-12-22T12:26:11;2.47;;;1.10;;
9838;SDS011;4958;48.150;11.506;2023-12-22T12:28:53;2.30;;;1.07;;
9838;SDS011;4958;48.150;11.506;2023-12-22T12:31:36;1.77;;;1.00;;
9838;SDS011;4958;48.150;11.506;2023-12-22T12:34:13;2.63;;;1.00;;
9838;SDS011;4958;48.150;11.506;2023-12-22T12:36:42;4.10;;;1.27;;
9838;SDS011;4958;48.150;11.506;2023-12-22T12:39:10;2.30;;;1.13;;
9838;SDS011;4958;48.150;11.506;2023-12-22T12:41:56;3.97;;;1.30;;
9838;SDS011;4958;48.150;11.506;2023-12-22T12:44:27;1.37;;;0.87;;
9838;SDS011;4958;48.150;11.506;2023-12-22T12:47:15;2.23;;;1.27;;
9838;SDS011;4958;48.150;11.506;2023-12-22T12:49:46;5.07;;;1.17;;
9838;SDS011;4958;48.150;11.506;2023-12-22T12:52:45;2.73;;;1.33;;
9838;SDS011;4958;48.150;11.506;2023-12-22T12:55:32;2.57;;;1.40;;
9838;SDS011;4958;48.150;11.506;2023-12-22T12:57:59;3.43;;;0.80;;
9838;SDS011;4958;48.150;11.506;2023-12-22T13:00:26;1.90;;;1.10;;
9838;SDS011;4958;48.150;11.506;2023-12-22T13:03:10;3.03;;;1.00;;
9838;SDS011;4958;48.150;11.506;2023-12-22T13:05:46;2.40;;;0.93;;
9838;SDS011;4958;48.150;11.506;2023-12-22T13:08:26;1.20;;;1.07;;
9838;SDS011;4958;48.150;11.506;2023-12-22T13:10:59;1.50;;;0.90;;
9838;SDS011;4958;48.150;11.506;2023-12-22T13:13:27;3.10;;;0.80;;
9838;SDS011;4958;48.150;11.506;2023-12-22T13:16:05;1.40;;;0.80;;
9838;SDS011;4958;48.150;11.506;2023-12-22T13:18:35;1.67;;;0.80;;
9838;SDS011;4958;48.150;11.506;2023-12-22T13:23:48;2.87;;;1.00;;
9838;SDS011;4958;48.150;11.506;2023-12-22T13:26:44;2.40;;;0.90;;
9838;SDS011;4958;48.150;11.506;2023-12-22T13:29:11;1.37;;;1.10;;
9838;SDS011;4958;48.150;11.506;2023-12-22T13:34:29;2.83;;;1.13;;
9838;SDS011;4958;48.150;11.506;2023-12-22T13:37:07;2.63;;;1.07;;
9838;SDS011;4958;48.150;11.506;2023-12-22T13:39:36;1.43;;;1.10;;
9838;SDS011;4958;48.150;11.506;2023-12-22T13:42:03;1.57;;;0.90;;
9838;SDS011;4958;48.150;11.506;2023-12-22T13:44:30;2.63;;;1.10;;
9838;SDS011;4958;48.150;11.506;2023-12-22T13:46:58;1.50;;;1.27;;
9838;SDS011;4958;48.150;11.506;2023-12-22T13:49:39;1.90;;;1.03;;
9838;SDS011;4958;48.150;11.506;2023-12-22T13:52:07;1.80;;;1.20;;
9838;SDS011;4958;48.150;11.506;2023-12-22T13:54:34;1.63;;;1.03;;
9838;SDS011;4958;48.150;11.506;2023-12-22T13:57:03;2.63;;;1.10;;
9838;SDS011;4958;48.150;11.506;2023-12-22T13:59:33;2.40;;;1.00;;
9838;SDS011;4958;48.150;11.506;2023-12-22T14:02:11;2.27;;;1.10;;
9838;SDS011;4958;48.150;11.506;2023-12-22T14:08:03;2.03;;;0.97;;
9838;SDS011;4958;48.150;11.506;2023-12-22T14:10:32;3.43;;;1.03;;
9838;SDS011;4958;48.150;11.506;2023-12-22T14:13:01;1.57;;;1.00;;
9838;SDS011;4958;48.150;11.506;2023-12-22T14:15:28;2.80;;;0.90;;
9838;SDS011;4958;48.150;11.506;2023-12-22T14:17:54;2.23;;;1.10;;
9838;SDS011;4958;48.150;11.506;2023-12-22T14:20:22;2.00;;;1.00;;
9838;SDS011;4958;48.150;11.506;2023-12-22T14:22:49;2.47;;;1.20;;
9838;SDS011;4958;48.150;11.506;2023-12-22T14:25:20;1.60;;;0.80;;
9838;SDS011;4958;48.150;11.506;2023-12-22T14:27:47;1.17;;;0.97;;
9838;SDS011;4958;48.150;11.506;2023-12-22T14:30:23;1.50;;;1.00;;
9838;SDS011;4958;48.150;11.506;2023-12-22T14:32:53;1.83;;;1.00;;
9838;SDS011;4958;48.150;11.506;2023-12-22T14:35:19;1.07;;;0.80;;
9838;SDS011;4958;48.150;11.506;2023-12-22T14:37:46;3.10;;;1.10;;
9838;SDS011;4958;48.150;11.506;2023-12-22T14:40:18;1.37;;;0.80;;
9838;SDS011;4958;48.150;11.506;2023-12-22T14:42:55;0.77;;;0.77;;
9838;SDS011;4958;48.150;11.506;2023-12-22T14:45:24;0.93;;;0.87;;
9838;SDS011;4958;48.150;11.506;2023-12-22T14:47:53;1.07;;;0.70;;
9838;SDS011;4958;48.150;11.506;2023-12-22T14:50:22;0.70;;;0.70;;
9838;SDS011;4958;48.150;11.506;2023-12-22T14:52:51;0.73;;;0.60;;
9838;SDS011;4958;48.150;11.506;2023-12-22T14:55:17;1.53;;;0.70;;
9838;SDS011;4958;48.150;11.506;2023-12-22T14:57:45;0.70;;;0.60;;
9838;SDS011;4958;48.150;11.506;2023-12-22T15:00:13;0.77;;;0.70;;
9838;SDS011;4958;48.150;11.506;2023-12-22T15:02:42;0.87;;;0.60;;
9838;SDS011;4958;48.150;11.506;2023-12-22T15:05:18;0.53;;;0.53;;
9838;SDS011;4958;48.150;11.506;2023-12-22T15:07:45;1.50;;;0.60;;
9838;SDS011;4958;48.150;11.506;2023-12-22T15:10:14;2.03;;;0.80;;
9838;SDS011;4958;48.150;11.506;2023-12-22T15:12:41;0.60;;;0.60;;
9838;SDS011;4958;48.150;11.506;2023-12-22T15:15:24;0.70;;;0.70;;
9838;SDS011;4958;48.150;11.506;2023-12-22T15:17:54;1.17;;;0.50;;
9838;SDS011;4958;48.150;11.506;2023-12-22T15:20:20;1.23;;;0.50;;
9838;SDS011;4958;48.150;11.506;2023-12-22T15:22:48;0.60;;;0.60;;
9838;SDS011;4958;48.150;11.506;2023-12-22T15:25:25;0.73;;;0.73;;
9838;SDS011;4958;48.150;11.506;2023-12-22T15:27:55;3.37;;;0.60;;
9838;SDS011;4958;48.150;11.506;2023-12-22T15:30:36;0.50;;;0.50;;
9838;SDS011;4958;48.150;11.506;2023-12-22T15:33:03;0.60;;;0.60;;
9838;SDS011;4958;48.150;11.506;2023-12-22T15:35:30;1.07;;;0.67;;
9838;SDS011;4958;48.150;11.506;2023-12-22T15:37:57;0.60;;;0.60;;
9838;SDS011;4958;48.150;11.506;2023-12-22T15:40:23;0.77;;;0.70;;
9838;SDS011;4958;48.150;11.506;2023-12-22T15:42:50;0.73;;;0.70;;
9838;SDS011;4958;48.150;11.506;2023-12-22T15:45:21;1.50;;;0.80;;
9838;SDS011;4958;48.150;11.506;2023-12-22T15:47:52;2.03;;;0.70;;
9838;SDS011;4958;48.150;11.506;2023-12-22T15:50:22;1.13;;;0.70;;
9838;SDS011;4958;48.150;11.506;2023-12-22T15:52:49;0.70;;;0.70;;
9838;SDS011;4958;48.150;11.506;2023-12-22T15:55:17;0.73;;;0.60;;